createdAt,value
2024-01-21T00:03:44.223Z,33.20
2024-01-21T00:08:47.245Z,33.40
2024-01-21T00:13:51.557Z,33.20
2024-01-21T00:18:54.536Z,33.40
2024-01-21T00:23:57.689Z,33.10
2024-01-21T00:29:02.692Z,33.10
2024-01-21T00:34:05.905Z,33.20
2024-01-21T00:39:09.031Z,33.10
2024-01-21T00:44:13.342Z,33.10
2024-01-21T00:49:16.382Z,33.10
2024-01-21T00:54:19.910Z,33.20
2024-01-21T00:59:24.153Z,33.10
2024-01-21T01:04:27.137Z,33.00
2024-01-21T01:09:30.122Z,33.20
2024-01-21T01:14:34.416Z,32.90
2024-01-21T01:19:37.479Z,33.00
2024-01-21T01:24:40.593Z,33.00
2024-01-21T01:29:44.828Z,33.00
2024-01-21T01:34:48.009Z,33.00
2024-01-21T01:39:51.179Z,33.00
2024-01-21T01:44:55.402Z,32.70
2024-01-21T01:49:58.667Z,33.00
2024-01-21T01:55:01.575Z,33.00
2024-01-21T02:00:07.981Z,32.90
2024-01-21T02:05:11.390Z,33.00
2024-01-21T02:10:14.429Z,33.00
2024-01-21T02:15:18.845Z,33.00
2024-01-21T02:20:21.837Z,33.10
2024-01-21T02:25:26.083Z,33.00
2024-01-21T02:30:28.985Z,32.80
2024-01-21T02:35:31.973Z,32.80
2024-01-21T02:40:36.844Z,32.90
2024-01-21T02:45:39.817Z,32.90
2024-01-21T02:50:43.016Z,32.80
2024-01-21T02:55:47.294Z,32.60
2024-01-21T03:00:50.497Z,32.80
2024-01-21T03:05:53.468Z,32.60
2024-01-21T03:10:57.687Z,32.80
2024-01-21T03:16:00.595Z,32.90
2024-01-21T03:21:03.562Z,32.80
2024-01-21T03:26:07.876Z,32.50
2024-01-21T03:31:11.590Z,32.70
2024-01-21T03:36:14.683Z,32.70
2024-01-21T03:41:21.029Z,32.40
2024-01-21T03:46:24.024Z,32.50
2024-01-21T03:51:26.993Z,32.40
2024-01-21T03:56:31.589Z,32.60
2024-01-21T04:01:34.522Z,32.60
2024-01-21T04:06:41.198Z,32.60
2024-01-21T04:11:45.480Z,32.40
2024-01-21T04:16:48.441Z,32.50
2024-01-21T04:21:51.457Z,32.50
2024-01-21T04:26:55.769Z,32.50
2024-01-21T04:31:58.899Z,32.70
2024-01-21T04:37:02.391Z,32.50
2024-01-21T04:42:07.015Z,32.60
2024-01-21T04:47:11.587Z,32.40
2024-01-21T04:52:14.570Z,32.50
2024-01-21T04:57:19.029Z,32.50
2024-01-21T05:02:21.999Z,32.40
2024-01-21T05:07:26.436Z,32.30
2024-01-21T05:12:32.511Z,32.50
2024-01-21T05:17:35.488Z,32.40
2024-01-21T05:22:38.485Z,32.30
2024-01-21T05:27:42.777Z,32.30
2024-01-21T05:32:47.488Z,32.40
2024-01-21T05:37:50.612Z,32.50
2024-01-21T05:42:54.904Z,32.40
2024-01-21T05:47:57.875Z,32.50
2024-01-21T05:53:00.833Z,32.50
2024-01-21T05:58:05.511Z,32.50
2024-01-21T06:03:08.578Z,32.50
2024-01-21T06:08:12.197Z,32.40
2024-01-21T06:13:16.435Z,32.40
2024-01-21T06:18:19.435Z,32.30
2024-01-21T06:23:22.380Z,32.50
2024-01-21T06:28:26.652Z,32.30
2024-01-21T06:33:29.790Z,32.50
2024-01-21T06:38:32.747Z,32.40
2024-01-21T06:43:36.947Z,32.40
2024-01-21T06:48:40.077Z,32.50
2024-01-21T06:53:44.294Z,32.50
2024-01-21T06:58:48.792Z,32.50
2024-01-21T07:03:51.862Z,32.30
2024-01-21T07:08:54.909Z,32.40
2024-01-21T07:13:59.098Z,32.60
2024-01-21T07:19:02.040Z,32.40
2024-01-21T07:24:05.441Z,32.40
2024-01-21T07:29:09.702Z,32.40
2024-01-21T07:34:13.031Z,32.40
2024-01-21T07:39:16.121Z,32.50
2024-01-21T07:44:20.407Z,32.30
2024-01-21T07:49:23.389Z,32.40
2024-01-21T07:54:26.449Z,32.30
2024-01-21T07:59:30.905Z,32.40
2024-01-21T08:04:33.855Z,32.50
2024-01-21T08:09:37.044Z,32.40
2024-01-21T08:14:41.627Z,32.40
2024-01-21T08:19:44.642Z,32.60
2024-01-21T08:24:53.901Z,32.50
2024-01-21T08:29:58.256Z,32.60
2024-01-21T08:35:01.256Z,32.70
2024-01-21T08:40:05.413Z,32.30
2024-01-21T08:45:10.933Z,32.50
2024-01-21T08:50:15.176Z,32.60
2024-01-21T08:55:18.461Z,32.50
2024-01-21T09:00:23.139Z,32.40
2024-01-21T09:05:28.454Z,32.70
2024-01-21T09:10:31.462Z,32.60
2024-01-21T09:15:35.777Z,32.70
2024-01-21T09:20:38.673Z,32.60
2024-01-21T09:25:41.647Z,32.80
2024-01-21T09:30:47.380Z,32.90
2024-01-21T09:35:51.585Z,32.80
2024-01-21T09:40:59.936Z,32.70
2024-01-21T09:46:05.465Z,32.90
2024-01-21T09:51:09.478Z,33.00
2024-01-21T09:56:12.657Z,33.00
2024-01-21T10:01:17.785Z,32.90
2024-01-21T10:06:20.898Z,32.60
2024-01-21T10:11:23.792Z,32.90
2024-01-21T10:16:28.042Z,33.10
2024-01-21T10:21:31.704Z,33.10
2024-01-21T10:26:34.684Z,33.10
2024-01-21T10:31:38.936Z,33.20
2024-01-21T10:36:45.947Z,33.10
2024-01-21T10:41:48.958Z,33.10
2024-01-21T10:46:54.984Z,33.00
2024-01-21T10:51:57.972Z,33.10
2024-01-21T10:57:01.338Z,33.40
2024-01-21T11:02:07.433Z,33.30
2024-01-21T11:07:13.341Z,33.20
2024-01-21T11:12:16.317Z,33.60
2024-01-21T11:17:20.800Z,33.50
2024-01-21T11:22:26.785Z,33.20
2024-01-21T11:27:30.653Z,33.40
2024-01-21T11:32:35.224Z,33.40
2024-01-21T11:37:38.468Z,33.60
2024-01-21T11:42:41.463Z,33.50
2024-01-21T11:47:46.899Z,33.90
2024-01-21T11:52:49.785Z,33.50
2024-01-21T11:57:52.758Z,33.60
2024-01-21T12:02:57.011Z,33.80
2024-01-21T12:08:01.607Z,33.90
2024-01-21T12:13:07.498Z,33.80
2024-01-21T12:18:17.948Z,33.80
2024-01-21T12:23:22.968Z,33.80
2024-01-21T12:28:25.975Z,34.00
2024-01-21T12:33:30.768Z,33.90
2024-01-21T12:38:33.820Z,34.00
2024-01-21T12:43:36.773Z,33.80
2024-01-21T12:48:41.105Z,33.90
2024-01-21T12:53:44.044Z,34.00
2024-01-21T12:58:47.370Z,33.90
2024-01-21T13:03:54.130Z,34.20
2024-01-21T13:08:57.374Z,34.00
2024-01-21T13:14:00.479Z,34.00
2024-01-21T13:19:04.893Z,34.20
2024-01-21T13:24:08.709Z,34.30
2024-01-21T13:29:29.029Z,34.20
2024-01-21T13:34:33.488Z,33.90
2024-01-21T13:39:36.527Z,34.10
2024-01-21T13:44:39.405Z,34.20
2024-01-21T13:49:43.715Z,34.30
2024-01-21T13:54:46.667Z,34.30
2024-01-21T13:59:49.600Z,34.20
2024-01-21T14:04:54.555Z,34.30
2024-01-21T14:09:59.955Z,34.30
2024-01-21T14:15:02.869Z,34.20
2024-01-21T14:20:10.114Z,34.30
2024-01-21T14:25:18.049Z,34.40
2024-01-21T14:30:24.231Z,34.50
2024-01-21T14:35:28.560Z,34.10
2024-01-21T14:40:32.783Z,34.40
2024-01-21T14:45:35.779Z,34.30
2024-01-21T14:50:40.010Z,34.40
2024-01-21T14:55:43.007Z,34.30
2024-01-21T15:00:47.430Z,34.50
2024-01-21T15:05:51.779Z,34.30
2024-01-21T15:10:54.974Z,34.40
2024-01-21T15:15:58.272Z,34.30
2024-01-21T15:21:02.504Z,34.50
2024-01-21T15:26:05.789Z,34.50
2024-01-21T15:31:08.872Z,34.40
2024-01-21T15:36:13.652Z,34.40
2024-01-21T15:41:16.631Z,34.50
2024-01-21T15:46:20.009Z,34.30
2024-01-21T15:51:24.337Z,34.30
2024-01-21T15:56:27.242Z,34.50
2024-01-21T16:01:30.811Z,34.40
2024-01-21T16:06:35.487Z,34.50
2024-01-21T16:11:38.574Z,34.40
2024-01-21T16:16:44.607Z,34.50
2024-01-21T16:21:49.432Z,34.40
2024-01-21T16:26:52.479Z,34.50
2024-01-21T16:31:55.860Z,34.40
2024-01-21T16:37:01.050Z,34.50
2024-01-21T16:42:04.339Z,34.60
2024-01-21T16:47:07.503Z,34.70
2024-01-21T16:52:16.790Z,34.50
2024-01-21T16:57:19.715Z,34.40
2024-01-21T17:02:23.442Z,34.40
2024-01-21T17:07:27.803Z,34.50
2024-01-21T17:12:37.452Z,34.70
2024-01-21T17:17:43.758Z,34.80
2024-01-21T17:22:48.100Z,34.70
2024-01-21T17:27:50.968Z,34.60
2024-01-21T17:32:53.972Z,34.40
2024-01-21T17:38:00.397Z,34.70
2024-01-21T17:43:03.665Z,34.60
2024-01-21T17:48:08.215Z,34.80
2024-01-21T17:53:12.681Z,34.60
2024-01-21T17:58:15.561Z,34.90
2024-01-21T18:03:18.500Z,34.60
2024-01-21T18:08:22.803Z,34.80
2024-01-21T18:13:25.777Z,34.70
2024-01-21T18:18:29.144Z,34.80
2024-01-21T18:23:33.517Z,34.70
2024-01-21T18:28:36.642Z,34.60
2024-01-21T18:33:39.832Z,34.90
2024-01-21T18:38:44.566Z,34.80
2024-01-21T18:43:48.606Z,34.70
2024-01-21T18:48:51.661Z,34.70
2024-01-21T18:53:56.256Z,34.90
2024-01-21T18:58:59.198Z,34.90
2024-01-21T19:04:02.185Z,34.90
2024-01-21T19:09:06.670Z,34.90
2024-01-21T19:14:09.724Z,35.00
2024-01-21T19:19:13.906Z,34.80
2024-01-21T19:24:18.430Z,34.80
2024-01-21T19:29:21.753Z,34.90
2024-01-21T19:34:24.652Z,34.90
2024-01-21T19:39:29.014Z,34.60
2024-01-21T19:44:31.974Z,35.10
2024-01-21T19:49:35.057Z,35.10
2024-01-21T19:54:39.301Z,35.00
2024-01-21T19:59:42.703Z,34.80
2024-01-21T20:04:45.661Z,35.00
2024-01-21T20:09:50.073Z,34.80
2024-01-21T20:14:53.166Z,34.90
2024-01-21T20:19:56.127Z,34.90
2024-01-21T20:25:01.208Z,34.90
2024-01-21T20:30:06.072Z,34.90
2024-01-21T20:35:09.644Z,35.00
2024-01-21T20:40:15.509Z,35.00
2024-01-21T20:45:18.526Z,34.80
2024-01-21T20:50:21.477Z,34.90
2024-01-21T20:55:30.100Z,35.10
2024-01-21T21:00:33.726Z,34.80
2024-01-21T21:05:37.794Z,34.90
2024-01-21T21:10:42.836Z,34.80
2024-01-21T21:15:45.780Z,35.00
2024-01-21T21:20:48.943Z,34.90
2024-01-21T21:25:53.232Z,34.80
2024-01-21T21:30:56.161Z,34.80
2024-01-21T21:35:59.386Z,34.80
2024-01-21T21:41:04.355Z,35.00
2024-01-21T21:46:08.466Z,35.10
2024-01-21T21:51:11.446Z,34.80
2024-01-21T21:56:16.278Z,34.70
2024-01-21T22:01:19.827Z,34.90
2024-01-21T22:06:23.641Z,34.60
2024-01-21T22:11:28.557Z,34.80
2024-01-21T22:16:32.096Z,34.90
2024-01-21T22:21:35.340Z,35.00
2024-01-21T22:26:43.559Z,34.90
2024-01-21T22:31:48.141Z,35.00
2024-01-21T22:36:51.083Z,34.80
2024-01-21T22:41:55.347Z,34.90
2024-01-21T22:46:58.227Z,34.70
2024-01-21T22:52:01.554Z,35.00
2024-01-21T22:57:06.107Z,34.80
2024-01-21T23:02:09.173Z,34.90
2024-01-21T23:07:12.109Z,34.90
2024-01-21T23:12:16.502Z,34.90
2024-01-21T23:17:19.465Z,34.70
2024-01-21T23:22:22.375Z,34.80
2024-01-21T23:27:26.600Z,34.80
2024-01-21T23:32:29.559Z,34.90
2024-01-21T23:37:32.466Z,34.80
2024-01-21T23:42:36.719Z,34.90
2024-01-21T23:47:39.737Z,34.70
2024-01-21T23:52:43.731Z,34.60
2024-01-21T23:57:48.960Z,34.70
